Time;durP1;ratioP1;P1;durP2;ratioP2;P2;SDS_P1;SDS_P2;PMS_P1;PMS_P2;Temp;Humidity;BMP_temperature;BMP_pressure;BME280_temperature;BME280_humidity;BME280_pressure;Samples;Min_cycle;Max_cycle;Signal;HPM_P1;HPM_P2
2021/04/19 00:01:28;;;;;;;9.40;6.35;;;7.00;99.90;;;;;;5018381;28;20083;-81
2021/04/19 00:03:53;;;;;;;10.18;6.72;;;7.00;99.90;;;;;;5018457;28;20098;-81
2021/04/19 00:06:19;;;;;;;10.50;6.18;;;7.00;99.90;;;;;;5036073;28;20025;-82
2021/04/19 00:08:45;;;;;;;11.48;6.68;;;7.00;99.90;;;;;;5018436;28;20060;-81
2021/04/19 00:11:11;;;;;;;15.50;7.63;;;7.00;99.90;;;;;;5036040;28;20022;-81
2021/04/19 00:13:37;;;;;;;12.10;7.43;;;7.10;99.90;;;;;;5036487;28;20032;-81
2021/04/19 00:16:03;;;;;;;9.73;6.35;;;7.10;99.90;;;;;;5018037;28;20075;-82
2021/04/19 00:18:28;;;;;;;10.93;6.60;;;7.10;99.90;;;;;;5018179;28;20029;-81
2021/04/19 00:20:54;;;;;;;11.05;6.80;;;7.10;99.90;;;;;;5018324;28;20025;-81
2021/04/19 00:23:20;;;;;;;14.00;6.30;;;7.20;99.90;;;;;;5018102;28;20071;-81
2021/04/19 00:25:46;;;;;;;12.85;7.80;;;7.10;99.90;;;;;;5035719;28;20389;-82
2021/04/19 00:28:11;;;;;;;11.02;6.03;;;7.00;99.90;;;;;;5034910;28;20074;-82
2021/04/19 00:30:37;;;;;;;9.30;6.22;;;6.90;99.90;;;;;;5035648;28;20041;-81
2021/04/19 00:33:03;;;;;;;11.48;6.03;;;7.10;99.90;;;;;;5035677;28;20388;-82
2021/04/19 00:35:29;;;;;;;12.52;6.40;;;7.10;99.90;;;;;;5035498;28;20026;-81
2021/04/19 00:37:54;;;;;;;10.43;6.22;;;7.10;99.90;;;;;;5035974;28;20449;-82
2021/04/19 00:40:21;;;;;;;13.88;7.15;;;7.10;99.90;;;;;;5017743;28;20044;-82
2021/04/19 00:42:49;;;;;;;13.93;6.78;;;7.10;99.90;;;;;;5035279;28;20034;-81
2021/04/19 00:45:16;;;;;;;10.00;6.25;;;7.00;99.90;;;;;;5035351;28;20069;-81
2021/04/19 00:47:45;;;;;;;10.63;6.13;;;7.00;99.90;;;;;;5017560;28;20026;-81
2021/04/19 00:50:25;;;;;;;10.93;6.35;;;7.00;99.90;;;;;;5017503;28;20025;-81
2021/04/19 00:52:52;;;;;;;11.98;7.50;;;6.90;99.90;;;;;;5035272;28;20030;-82
2021/04/19 00:55:18;;;;;;;10.43;6.45;;;6.90;99.90;;;;;;5017392;28;20489;-81
2021/04/19 00:57:44;;;;;;;11.82;6.50;;;7.00;99.90;;;;;;5017370;28;20028;-81
2021/04/19 01:00:21;;;;;;;9.73;6.25;;;6.90;99.90;;;;;;5035110;28;20028;-82
2021/04/19 01:02:47;;;;;;;10.60;6.18;;;6.90;99.90;;;;;;5035677;28;20021;-81
2021/04/19 01:05:21;;;;;;;9.77;6.07;;;6.90;99.90;;;;;;5035057;28;20425;-81
2021/04/19 01:07:47;;;;;;;15.43;7.85;;;6.90;99.90;;;;;;5035270;28;20495;-81
2021/04/19 01:10:13;;;;;;;12.98;7.43;;;6.90;99.90;;;;;;5017131;28;20112;-81
2021/04/19 01:12:38;;;;;;;8.48;6.00;;;6.90;99.90;;;;;;5034781;28;20563;-82
2021/04/19 01:15:05;;;;;;;8.35;6.03;;;6.90;99.90;;;;;;5017000;28;20124;-81
2021/04/19 01:17:31;;;;;;;11.02;6.18;;;6.90;99.90;;;;;;5034710;28;20029;-81
2021/04/19 01:19:57;;;;;;;11.77;7.05;;;6.90;99.90;;;;;;5034963;28;20147;-81
2021/04/19 01:22:23;;;;;;;11.80;7.53;;;6.80;99.90;;;;;;5016906;28;20026;-81
2021/04/19 01:24:48;;;;;;;14.70;6.68;;;6.80;99.90;;;;;;5016885;28;20056;-82
2021/04/19 01:27:14;;;;;;;12.30;7.00;;;6.80;99.90;;;;;;5016888;28;20489;-81
2021/04/19 01:29:40;;;;;;;11.48;7.53;;;6.80;99.90;;;;;;5034792;28;20388;-81
2021/04/19 01:32:06;;;;;;;11.70;6.47;;;6.80;99.90;;;;;;5034442;28;20022;-81
2021/04/19 01:34:32;;;;;;;9.75;7.15;;;6.70;99.90;;;;;;5034303;28;20492;-81
2021/04/19 01:36:58;;;;;;;9.70;6.30;;;6.70;99.90;;;;;;5016626;28;20028;-82
2021/04/19 01:39:23;;;;;;;12.50;7.90;;;6.70;99.90;;;;;;5034241;28;20024;-81
2021/04/19 01:41:49;;;;;;;12.80;7.25;;;6.60;99.90;;;;;;5034301;28;20362;-82
2021/04/19 01:44:15;;;;;;;13.95;6.78;;;6.70;99.90;;;;;;5034092;28;20045;-81
2021/04/19 01:46:41;;;;;;;12.77;7.35;;;6.70;99.90;;;;;;5034233;28;20072;-81
2021/04/19 01:49:17;;;;;;;10.10;6.47;;;6.80;99.90;;;;;;5016423;28;20490;-82
2021/04/19 01:51:44;;;;;;;14.65;7.82;;;6.80;99.90;;;;;;5016437;28;20025;-81
2021/04/19 01:54:10;;;;;;;10.52;6.10;;;6.70;99.90;;;;;;5016448;28;20029;-81
2021/04/19 01:56:36;;;;;;;11.60;6.30;;;6.80;99.90;;;;;;5033951;28;20029;-81
2021/04/19 01:59:03;;;;;;;11.80;7.68;;;6.90;99.90;;;;;;5034022;28;20030;-81
2021/04/19 02:01:30;;;;;;;12.15;7.75;;;6.80;99.90;;;;;;5033935;28;20056;-81
2021/04/19 02:04:10;;;;;;;14.45;8.13;;;6.70;99.90;;;;;;5016269;28;20033;-82
2021/04/19 02:06:55;;;;;;;11.55;7.05;;;6.60;99.90;;;;;;5016268;28;20026;-81
2021/04/19 02:09:27;;;;;;;10.32;6.95;;;6.60;99.90;;;;;;5034109;28;20025;-81
2021/04/19 02:12:14;;;;;;;15.30;7.95;;;6.60;99.90;;;;;;5016084;28;20052;-81
2021/04/19 02:14:50;;;;;;;10.55;6.93;;;6.60;99.90;;;;;;5015969;28;20037;-81
2021/04/19 02:17:46;;;;;;;14.40;8.70;;;6.70;99.90;;;;;;5033840;28;20029;-82
2021/04/19 02:20:29;;;;;;;13.80;8.68;;;6.60;99.90;;;;;;5016022;28;20022;-82
2021/04/19 02:23:06;;;;;;;12.07;8.57;;;6.30;99.90;;;;;;5015845;28;20125;-82
2021/04/19 02:25:37;;;;;;;14.00;8.93;;;6.30;99.90;;;;;;5033589;28;20033;-82
2021/04/19 02:28:06;;;;;;;12.88;7.97;;;6.30;99.90;;;;;;5015834;28;20424;-82
2021/04/19 02:30:35;;;;;;;11.43;7.20;;;6.50;99.90;;;;;;5015688;28;20029;-81
2021/04/19 02:33:03;;;;;;;10.82;7.00;;;6.60;99.90;;;;;;5033332;28;20029;-81
2021/04/19 02:35:32;;;;;;;13.88;7.65;;;6.60;99.90;;;;;;5033590;28;20038;-82
2021/04/19 02:38:00;;;;;;;14.75;8.75;;;6.50;99.90;;;;;;5033476;28;20055;-82
2021/04/19 02:40:28;;;;;;;9.13;6.63;;;6.50;99.90;;;;;;5015511;28;20026;-81
2021/04/19 02:42:56;;;;;;;15.30;9.43;;;6.40;99.90;;;;;;5015429;28;20044;-82
2021/04/19 02:45:23;;;;;;;14.55;8.93;;;6.40;99.90;;;;;;5015588;28;20436;-82
2021/04/19 02:47:50;;;;;;;14.25;8.65;;;6.30;99.90;;;;;;5015524;28;20370;-81
2021/04/19 02:50:26;;;;;;;14.13;8.85;;;6.40;99.90;;;;;;5033522;28;20420;-81
2021/04/19 02:52:52;;;;;;;13.10;7.65;;;6.40;99.90;;;;;;5040110;28;20055;-82
2021/04/19 02:55:23;;;;;;;16.67;10.20;;;6.50;99.90;;;;;;5039726;28;20037;-82
2021/04/19 02:58:02;;;;;;;13.57;8.05;;;6.70;99.90;;;;;;5021997;28;20075;-81
2021/04/19 03:00:35;;;;;;;12.05;7.68;;;6.70;99.90;;;;;;5039996;28;20488;-81
2021/04/19 03:03:07;;;;;;;12.25;7.60;;;6.70;99.90;;;;;;5021930;28;20397;-81
2021/04/19 03:05:34;;;;;;;11.55;7.25;;;6.70;99.90;;;;;;5021985;28;20025;-81
2021/04/19 03:08:03;;;;;;;13.27;8.75;;;6.70;99.90;;;;;;5021916;28;20030;-82
2021/04/19 03:10:36;;;;;;;10.13;8.15;;;6.70;99.90;;;;;;5039586;28;20026;-81
2021/04/19 03:13:03;;;;;;;13.85;7.60;;;6.80;99.90;;;;;;5040266;28;20032;-81
2021/04/19 03:15:35;;;;;;;12.38;8.68;;;6.80;99.90;;;;;;5040102;28;20033;-81
2021/04/19 03:18:03;;;;;;;12.82;8.10;;;6.70;99.90;;;;;;5039640;28;20049;-82
2021/04/19 03:20:42;;;;;;;15.73;9.68;;;6.70;99.90;;;;;;5039544;28;20087;-81
2021/04/19 03:23:09;;;;;;;13.85;8.63;;;6.70;99.90;;;;;;5021842;28;20116;-81
2021/04/19 03:25:37;;;;;;;23.27;9.95;;;6.70;99.90;;;;;;5021788;28;20030;-81
2021/04/19 03:28:04;;;;;;;10.57;6.50;;;6.70;99.90;;;;;;5022010;28;20033;-81
2021/04/19 03:30:30;;;;;;;15.88;8.57;;;6.80;99.90;;;;;;5021562;28;20060;-81
2021/04/19 03:32:58;;;;;;;18.83;10.95;;;6.70;99.90;;;;;;5039425;28;20025;-81
2021/04/19 03:35:28;;;;;;;13.48;9.48;;;6.70;99.90;;;;;;5039307;28;20097;-81
2021/04/19 03:37:56;;;;;;;14.02;9.07;;;6.60;99.90;;;;;;5039761;28;20536;-81
2021/04/19 03:40:28;;;;;;;13.18;8.30;;;6.60;99.90;;;;;;5021540;28;20391;-81
2021/04/19 03:42:59;;;;;;;16.67;10.25;;;6.60;99.90;;;;;;5018392;28;20046;-81
2021/04/19 03:45:28;;;;;;;11.45;7.93;;;6.50;99.90;;;;;;5018280;28;20049;-81
2021/04/19 03:47:56;;;;;;;14.65;8.85;;;6.60;99.90;;;;;;5018259;28;20099;-81
2021/04/19 03:50:24;;;;;;;11.32;7.82;;;6.60;99.90;;;;;;5019519;28;20072;-82
2021/04/19 03:52:53;;;;;;;15.20;7.70;;;6.70;99.90;;;;;;5019570;28;20026;-81
2021/04/19 03:55:19;;;;;;;14.55;8.82;;;6.70;99.90;;;;;;5018155;28;20036;-81
2021/04/19 03:57:49;;;;;;;13.57;8.82;;;6.70;99.90;;;;;;5019575;28;20022;-82
2021/04/19 04:00:20;;;;;;;13.52;9.35;;;6.60;99.90;;;;;;5019474;28;20029;-82
2021/04/19 04:02:53;;;;;;;13.13;7.57;;;6.70;99.90;;;;;;5017077;28;20022;-82
2021/04/19 04:05:20;;;;;;;13.43;9.48;;;6.70;99.90;;;;;;5016644;28;20037;-82
2021/04/19 04:07:48;;;;;;;12.95;9.10;;;6.80;99.90;;;;;;5015034;28;20099;-82
2021/04/19 04:10:17;;;;;;;19.58;10.43;;;6.80;99.90;;;;;;5016245;28;20362;-82
2021/04/19 04:12:43;;;;;;;16.05;9.57;;;6.70;99.90;;;;;;5016773;28;20037;-82
2021/04/19 04:15:09;;;;;;;16.20;8.70;;;6.70;99.90;;;;;;5014843;28;20030;-82
2021/04/19 04:17:35;;;;;;;14.70;9.23;;;6.70;99.90;;;;;;5016346;28;20030;-82
2021/04/19 04:20:00;;;;;;;18.75;12.25;;;6.60;99.90;;;;;;5016674;28;20022;-82
2021/04/19 04:22:26;;;;;;;15.30;8.32;;;6.60;99.90;;;;;;5016067;28;20033;-82
2021/04/19 04:24:52;;;;;;;16.05;10.65;;;6.60;99.90;;;;;;5015955;28;20101;-81
2021/04/19 04:27:18;;;;;;;17.15;10.90;;;6.60;99.90;;;;;;5014692;28;20026;-81
2021/04/19 04:29:44;;;;;;;15.18;9.77;;;6.60;99.90;;;;;;5014682;28;20026;-81
2021/04/19 04:32:10;;;;;;;13.88;8.40;;;6.70;99.90;;;;;;5015830;28;20029;-81
2021/04/19 04:34:36;;;;;;;13.38;9.30;;;6.70;99.90;;;;;;5016007;28;20359;-82
2021/04/19 04:37:02;;;;;;;16.88;10.73;;;6.70;99.90;;;;;;5014497;28;20072;-82
2021/04/19 04:39:27;;;;;;;14.93;9.82;;;6.80;99.90;;;;;;5014339;28;20029;-82
2021/04/19 04:41:53;;;;;;;15.38;9.68;;;6.70;99.90;;;;;;5015615;28;20026;-82
2021/04/19 04:44:33;;;;;;;19.13;10.45;;;6.60;99.90;;;;;;5014105;28;20053;-82
2021/04/19 04:47:05;;;;;;;15.88;9.75;;;6.60;99.90;;;;;;5015854;28;20030;-82
2021/04/19 04:50:11;;;;;;;15.85;10.20;;;6.70;99.90;;;;;;5015305;28;20547;-82
2021/04/19 04:52:50;;;;;;;16.08;10.02;;;6.70;99.90;;;;;;4974350;28;20054;-82
2021/04/19 04:55:19;;;;;;;17.17;10.05;;;6.60;99.90;;;;;;4974357;28;20518;-82
2021/04/19 04:57:45;;;;;;;16.52;10.70;;;6.70;99.90;;;;;;4998509;28;20541;-82
2021/04/19 05:00:14;;;;;;;17.85;9.68;;;6.70;99.90;;;;;;5013970;28;20026;-82
2021/04/19 05:02:42;;;;;;;16.85;10.07;;;6.70;99.90;;;;;;5015508;28;20090;-82
2021/04/19 05:05:10;;;;;;;15.07;9.75;;;6.60;99.90;;;;;;5015280;28;20034;-82
2021/04/19 05:07:36;;;;;;;17.30;11.15;;;6.60;99.90;;;;;;5015141;28;20511;-82
2021/04/19 05:10:04;;;;;;;17.58;11.35;;;6.70;99.90;;;;;;5015141;28;20474;-82
2021/04/19 05:12:30;;;;;;;17.88;12.45;;;6.70;99.90;;;;;;5015413;28;20034;-82
2021/04/19 05:15:09;;;;;;;22.75;12.63;;;6.60;99.90;;;;;;5015189;28;20087;-82
2021/04/19 05:17:45;;;;;;;21.35;13.30;;;6.60;99.90;;;;;;5013765;28;20033;-82
2021/04/19 05:20:13;;;;;;;21.67;10.88;;;6.60;99.90;;;;;;5015275;28;20093;-82
2021/04/19 05:22:40;;;;;;;20.38;11.98;;;6.40;99.90;;;;;;5014913;28;20037;-82
2021/04/19 05:25:07;;;;;;;19.52;11.50;;;6.50;99.90;;;;;;5014887;28;20021;-82
2021/04/19 05:27:33;;;;;;;21.85;11.60;;;6.40;99.90;;;;;;5014695;28;20045;-82
2021/04/19 05:30:00;;;;;;;22.30;13.05;;;6.40;99.90;;;;;;5015096;28;20477;-81
2021/04/19 05:32:27;;;;;;;16.45;11.30;;;6.30;99.90;;;;;;5014763;28;20029;-82
2021/04/19 05:34:55;;;;;;;15.55;10.80;;;6.30;99.90;;;;;;5014785;28;20040;-82
2021/04/19 05:37:21;;;;;;;18.17;10.85;;;6.50;99.90;;;;;;5014851;28;20032;-82
2021/04/19 05:39:48;;;;;;;20.05;12.13;;;6.60;99.90;;;;;;5014553;28;20072;-82
2021/04/19 05:42:15;;;;;;;19.77;10.90;;;6.60;99.90;;;;;;5016623;28;20041;-82
2021/04/19 05:44:41;;;;;;;19.10;11.70;;;6.50;99.90;;;;;;5034313;28;20014;-82
2021/04/19 05:47:08;;;;;;;17.35;10.32;;;6.50;99.90;;;;;;5034253;28;20022;-82
2021/04/19 05:49:34;;;;;;;19.60;11.32;;;6.60;99.90;;;;;;5034424;28;20044;-82
2021/04/19 05:52:03;;;;;;;21.17;13.25;;;6.70;99.90;;;;;;5034099;28;20025;-82
2021/04/19 05:54:29;;;;;;;17.88;12.50;;;6.80;99.90;;;;;;5034068;28;20087;-82
2021/04/19 05:57:06;;;;;;;16.65;11.68;;;6.70;99.90;;;;;;5033918;28;20094;-82
2021/04/19 06:00:04;;;;;;;20.48;11.48;;;6.60;99.90;;;;;;5016351;28;20362;-82
2021/04/19 06:03:01;;;;;;;21.90;14.15;;;6.60;99.90;;;;;;5033914;28;20025;-82
2021/04/19 06:05:33;;;;;;;17.80;11.45;;;6.40;99.90;;;;;;5033955;28;20393;-82
2021/04/19 06:08:13;;;;;;;18.45;12.25;;;6.40;99.90;;;;;;5015983;28;20484;-82
2021/04/19 06:10:51;;;;;;;15.77;10.38;;;6.50;99.90;;;;;;5033827;28;20036;-82
2021/04/19 06:13:19;;;;;;;19.65;13.93;;;6.40;99.90;;;;;;5033803;28;20022;-82
2021/04/19 06:15:51;;;;;;;20.73;12.63;;;6.30;99.90;;;;;;5033662;28;20025;-82
2021/04/19 06:18:20;;;;;;;19.77;13.18;;;6.30;99.90;;;;;;5033655;28;20055;-82
2021/04/19 06:20:50;;;;;;;21.92;14.93;;;6.20;99.90;;;;;;5033660;28;20502;-82
2021/04/19 06:23:17;;;;;;;24.25;13.13;;;6.20;99.90;;;;;;5033632;28;20039;-82
2021/04/19 06:25:43;;;;;;;23.05;15.50;;;6.30;99.90;;;;;;5032903;28;20018;-82
2021/04/19 06:28:08;;;;;;;22.25;12.60;;;6.30;99.90;;;;;;5033523;28;20030;-82
2021/04/19 06:30:42;;;;;;;19.92;12.50;;;6.30;99.90;;;;;;5015791;28;20112;-82
2021/04/19 06:33:19;;;;;;;20.50;12.70;;;6.50;99.90;;;;;;5033782;28;20109;-82
2021/04/19 06:35:46;;;;;;;22.23;13.77;;;6.40;99.90;;;;;;5033175;28;20119;-82
2021/04/19 06:38:12;;;;;;;30.40;16.85;;;6.40;99.90;;;;;;5015534;28;20053;-82
2021/04/19 06:40:42;;;;;;;22.52;13.15;;;6.30;99.90;;;;;;5015632;28;20021;-82
2021/04/19 06:43:09;;;;;;;24.38;14.60;;;6.30;99.90;;;;;;5015453;28;20048;-82
2021/04/19 06:45:38;;;;;;;25.40;14.10;;;6.20;99.90;;;;;;5033225;28;20445;-82
2021/04/19 06:48:05;;;;;;;20.05;12.02;;;6.30;99.90;;;;;;5015374;28;20032;-82
2021/04/19 06:50:32;;;;;;;15.75;9.60;;;6.40;99.90;;;;;;5015490;28;20431;-82
2021/04/19 06:52:58;;;;;;;19.13;12.00;;;6.50;99.90;;;;;;5033290;28;20091;-85
2021/04/19 06:55:24;;;;;;;23.73;13.70;;;6.60;99.90;;;;;;5033138;28;20030;-83
2021/04/19 06:57:57;;;;;;;21.73;12.60;;;6.60;99.90;;;;;;5033285;28;20025;-84
2021/04/19 07:00:24;;;;;;;18.98;12.27;;;6.70;99.90;;;;;;5033722;28;20022;-84
2021/04/19 07:02:52;;;;;;;18.50;12.18;;;6.70;99.90;;;;;;5033621;28;20024;-84
2021/04/19 07:05:28;;;;;;;59.17;24.55;;;6.70;99.90;;;;;;5015416;28;20083;-83
2021/04/19 07:08:02;;;;;;;22.60;13.45;;;6.60;99.90;;;;;;5015381;28;20033;-83
2021/04/19 07:10:30;;;;;;;24.63;13.48;;;6.70;99.90;;;;;;5015403;28;20025;-84
2021/04/19 07:12:59;;;;;;;25.02;14.82;;;6.70;99.90;;;;;;5015310;28;20041;-84
2021/04/19 07:15:26;;;;;;;23.10;13.70;;;6.70;99.90;;;;;;5015227;28;20124;-84
2021/04/19 07:17:52;;;;;;;15.27;10.93;;;6.60;99.90;;;;;;5033248;28;20469;-84
2021/04/19 07:20:18;;;;;;;18.92;11.93;;;6.70;99.90;;;;;;5032980;28;20076;-84
2021/04/19 07:22:45;;;;;;;23.27;15.13;;;6.70;99.90;;;;;;5015258;28;20452;-84
2021/04/19 07:25:11;;;;;;;22.88;12.95;;;6.60;99.90;;;;;;5015218;28;20026;-84
2021/04/19 07:27:40;;;;;;;22.55;15.13;;;6.60;99.90;;;;;;5032885;28;20032;-84
2021/04/19 07:30:10;;;;;;;25.08;13.57;;;6.60;99.90;;;;;;5015417;28;20032;-82
2021/04/19 07:32:38;;;;;;;18.65;10.85;;;6.50;99.90;;;;;;5033070;28;20021;-85
2021/04/19 07:35:06;;;;;;;19.20;11.27;;;6.70;99.90;;;;;;5033022;28;20384;-83
2021/04/19 07:37:34;;;;;;;22.80;14.02;;;6.70;99.90;;;;;;5034083;28;20053;-84
2021/04/19 07:40:02;;;;;;;16.90;11.50;;;6.70;99.90;;;;;;5036554;28;20074;-83
2021/04/19 07:42:28;;;;;;;21.45;12.75;;;6.80;99.90;;;;;;5036383;28;20120;-83
2021/04/19 07:44:54;;;;;;;18.05;11.77;;;6.80;99.90;;;;;;5002516;28;20060;-82
2021/04/19 07:47:38;;;;;;;21.45;12.30;;;6.80;99.90;;;;;;5036407;28;20032;-83
2021/04/19 07:50:13;;;;;;;20.50;12.70;;;6.80;99.90;;;;;;5036372;28;20022;-83
2021/04/19 07:52:57;;;;;;;18.60;12.90;;;6.70;99.90;;;;;;5018635;28;20213;-84
2021/04/19 07:55:35;;;;;;;19.15;11.85;;;6.60;99.90;;;;;;5036278;28;20054;-83
2021/04/19 07:58:02;;;;;;;17.13;11.15;;;6.60;99.90;;;;;;5036546;28;20043;-84
2021/04/19 08:00:39;;;;;;;25.88;14.30;;;6.60;99.90;;;;;;5018496;28;20485;-84
2021/04/19 08:03:10;;;;;;;23.75;11.48;;;6.70;99.90;;;;;;5018435;28;20027;-84
2021/04/19 08:05:52;;;;;;;22.83;13.55;;;6.70;99.90;;;;;;5018279;28;20025;-84
2021/04/19 08:08:38;;;;;;;17.50;11.52;;;6.80;99.90;;;;;;5036317;28;20064;-84
2021/04/19 08:11:11;;;;;;;22.83;12.95;;;6.80;99.90;;;;;;5018219;28;20040;-84
2021/04/19 08:13:38;;;;;;;26.85;15.48;;;6.80;99.90;;;;;;5035965;28;20414;-84
2021/04/19 08:16:21;;;;;;;21.17;13.68;;;6.90;99.90;;;;;;5018067;28;20026;-84
2021/04/19 08:18:48;;;;;;;17.70;12.07;;;7.00;99.90;;;;;;5035865;28;20053;-84
2021/04/19 08:21:25;;;;;;;25.23;14.38;;;7.10;99.90;;;;;;5018114;28;20124;-84
2021/04/19 08:23:51;;;;;;;16.98;11.60;;;7.10;99.90;;;;;;5017989;28;20017;-84
2021/04/19 08:26:16;;;;;;;22.27;13.30;;;7.00;99.90;;;;;;5017986;28;20033;-84
2021/04/19 08:28:44;;;;;;;22.90;14.05;;;7.00;99.90;;;;;;5017882;28;20462;-83
2021/04/19 08:31:11;;;;;;;24.48;15.30;;;7.00;99.90;;;;;;5017883;28;20112;-83
2021/04/19 08:33:37;;;;;;;20.58;12.82;;;7.00;99.90;;;;;;5017813;28;20029;-83
2021/04/19 08:36:06;;;;;;;22.25;13.98;;;6.90;99.90;;;;;;5017780;28;20083;-83
2021/04/19 08:38:33;;;;;;;19.45;12.63;;;7.00;99.90;;;;;;5035739;28;20045;-83
2021/04/19 08:40:59;;;;;;;20.80;14.55;;;6.90;99.90;;;;;;5017709;28;20039;-84
2021/04/19 08:43:28;;;;;;;19.83;12.38;;;6.90;99.90;;;;;;5017459;28;20045;-83
2021/04/19 08:45:56;;;;;;;17.83;10.60;;;6.90;99.90;;;;;;5017644;28;20473;-84
2021/04/19 08:48:21;;;;;;;27.00;15.65;;;7.00;99.90;;;;;;5017433;28;20032;-83
2021/04/19 08:50:51;;;;;;;20.95;12.43;;;7.00;99.90;;;;;;5034839;28;20029;-83
2021/04/19 08:53:18;;;;;;;25.48;14.88;;;7.00;99.90;;;;;;5035204;28;20105;-83
2021/04/19 08:55:45;;;;;;;29.23;18.05;;;7.00;99.90;;;;;;5017247;28;20026;-83
2021/04/19 08:58:13;;;;;;;28.42;17.13;;;6.90;99.90;;;;;;5035135;28;20026;-83
2021/04/19 09:00:41;;;;;;;25.90;14.70;;;6.70;99.90;;;;;;5017275;28;20022;-82
2021/04/19 09:03:08;;;;;;;22.23;15.23;;;6.60;99.90;;;;;;5017228;28;20025;-83
2021/04/19 09:05:34;;;;;;;28.33;17.95;;;6.60;99.90;;;;;;5017233;28;20370;-82
2021/04/19 09:08:08;;;;;;;28.35;15.85;;;6.60;99.90;;;;;;5034921;28;20076;-83
2021/04/19 09:10:49;;;;;;;28.80;18.15;;;6.70;99.90;;;;;;5017191;28;20079;-84
2021/04/19 09:13:35;;;;;;;32.40;19.27;;;6.70;99.90;;;;;;5017048;28;20067;-83
2021/04/19 09:16:24;;;;;;;25.38;15.05;;;6.70;99.90;;;;;;5035017;28;20092;-83
2021/04/19 09:19:00;;;;;;;30.15;18.35;;;6.80;99.90;;;;;;5022404;28;20044;-82
2021/04/19 09:21:42;;;;;;;21.83;13.48;;;6.80;99.90;;;;;;5034717;28;20385;-82
2021/04/19 09:24:11;;;;;;;21.17;12.25;;;6.80;99.90;;;;;;5035153;28;20025;-82
2021/04/19 09:26:55;;;;;;;30.85;17.73;;;6.80;99.90;;;;;;5034782;28;20018;-83
2021/04/19 09:29:24;;;;;;;21.38;11.90;;;6.80;99.90;;;;;;5016880;28;20049;-84
2021/04/19 09:31:56;;;;;;;17.63;11.48;;;6.90;99.90;;;;;;5016815;28;20033;-82
2021/04/19 09:34:49;;;;;;;25.90;16.65;;;7.00;99.90;;;;;;5034451;28;20429;-83
2021/04/19 09:37:18;;;;;;;20.73;13.70;;;6.80;99.90;;;;;;5013043;28;20400;-84
2021/04/19 09:40:06;;;;;;;31.80;18.63;;;6.80;99.90;;;;;;5034290;28;20022;-83
2021/04/19 09:43:04;;;;;;;25.38;14.93;;;6.60;99.90;;;;;;5034170;28;20038;-84
2021/04/19 09:45:41;;;;;;;30.85;17.05;;;6.60;99.90;;;;;;5016040;28;20088;-83
2021/04/19 09:48:27;;;;;;;31.73;20.08;;;6.70;99.90;;;;;;5016490;28;20048;-83
2021/04/19 09:50:57;;;;;;;20.92;13.10;;;6.70;99.90;;;;;;4967650;28;20043;-83
2021/04/19 09:53:23;;;;;;;26.23;16.52;;;6.70;99.90;;;;;;5034074;28;20083;-83
2021/04/19 09:55:50;;;;;;;32.08;18.95;;;6.70;99.90;;;;;;5016266;28;20041;-83
2021/04/19 09:58:16;;;;;;;29.83;16.90;;;6.90;99.90;;;;;;5016208;28;20049;-83
2021/04/19 10:00:43;;;;;;;16.65;11.50;;;6.80;99.90;;;;;;5033322;28;20021;-83
2021/04/19 10:03:09;;;;;;;25.88;16.02;;;7.00;99.90;;;;;;5033917;28;20075;-83
2021/04/19 10:05:38;;;;;;;19.05;13.65;;;7.10;99.90;;;;;;5034179;28;20109;-83
2021/04/19 10:08:05;;;;;;;21.38;14.75;;;7.20;99.90;;;;;;5016155;28;20032;-83
2021/04/19 10:10:32;;;;;;;27.48;15.43;;;7.20;99.90;;;;;;5016635;28;20377;-84
2021/04/19 10:12:58;;;;;;;30.75;18.13;;;7.10;99.90;;;;;;5015988;28;20026;-84
2021/04/19 10:15:26;;;;;;;27.27;17.58;;;7.10;99.90;;;;;;5033624;28;20029;-82
2021/04/19 10:17:53;;;;;;;29.15;18.48;;;7.00;99.90;;;;;;5015918;28;20108;-82
2021/04/19 10:20:25;;;;;;;27.55;17.38;;;7.20;99.90;;;;;;5015867;28;20124;-83
2021/04/19 10:23:11;;;;;;;32.38;17.90;;;7.20;99.90;;;;;;5033590;28;20495;-82
2021/04/19 10:25:53;;;;;;;29.98;17.70;;;7.20;99.90;;;;;;5033527;28;20105;-84
2021/04/19 10:28:35;;;;;;;30.90;18.52;;;7.20;99.90;;;;;;5033544;28;20055;-84
2021/04/19 10:31:12;;;;;;;22.20;14.30;;;7.20;99.90;;;;;;5033447;28;20017;-82
2021/04/19 10:33:44;;;;;;;33.17;20.63;;;7.20;99.90;;;;;;5015812;28;20057;-83
2021/04/19 10:36:24;;;;;;;21.88;13.98;;;7.10;99.90;;;;;;5033372;28;20409;-83
2021/04/19 10:38:58;;;;;;;31.25;19.63;;;7.00;99.90;;;;;;5015631;28;20040;-83
2021/04/19 10:41:42;;;;;;;;;;;7.10;99.90;;;;;;5016156;28;20435;-83
2021/04/19 10:44:11;;;;;;;23.35;14.77;;;7.20;99.90;;;;;;5015474;28;19924;-83
2021/04/19 10:46:39;;;;;;;23.50;15.07;;;7.30;99.90;;;;;;5033277;28;20032;-82
2021/04/19 10:49:06;;;;;;;26.45;15.00;;;7.40;99.90;;;;;;5033263;28;20033;-83
2021/04/19 10:51:37;;;;;;;32.17;20.42;;;7.30;99.90;;;;;;5015449;28;20032;-82
2021/04/19 10:54:06;;;;;;;27.23;17.38;;;7.20;99.90;;;;;;5015567;28;20457;-82
2021/04/19 10:56:33;;;;;;;36.70;20.95;;;7.10;99.90;;;;;;5015372;28;20022;-81
2021/04/19 10:59:07;;;;;;;25.48;15.23;;;7.10;99.90;;;;;;5033191;28;20387;-82
2021/04/19 11:01:35;;;;;;;26.83;17.15;;;7.20;99.90;;;;;;5033183;28;20092;-82
2021/04/19 11:04:03;;;;;;;27.63;16.65;;;7.20;99.90;;;;;;5015330;28;20026;-82
2021/04/19 11:06:28;;;;;;;34.05;21.10;;;7.30;99.90;;;;;;5033096;28;20107;-83
2021/04/19 11:09:03;;;;;;;38.47;22.90;;;7.30;99.90;;;;;;5033087;28;20056;-82
2021/04/19 11:11:37;;;;;;;34.33;20.45;;;7.30;99.90;;;;;;5033033;28;20029;-82
2021/04/19 11:14:14;;;;;;;35.60;19.70;;;7.20;99.90;;;;;;5019131;28;20052;-81
2021/04/19 11:17:01;;;;;;;23.80;16.13;;;7.30;99.90;;;;;;5036987;28;20401;-81
2021/04/19 11:19:40;;;;;;;30.02;17.42;;;7.60;99.90;;;;;;5036994;28;20017;-83
2021/04/19 11:22:27;;;;;;;29.73;17.75;;;7.50;99.90;;;;;;5020287;28;20166;-83
2021/04/19 11:24:55;;;;;;;34.08;19.38;;;7.70;99.90;;;;;;5018972;28;20113;-83
2021/04/19 11:27:25;;;;;;;28.40;18.20;;;7.80;99.90;;;;;;5018946;28;20048;-82
2021/04/19 11:29:52;;;;;;;33.03;20.13;;;7.80;99.90;;;;;;5036783;28;20014;-82
2021/04/19 11:32:32;;;;;;;31.38;20.08;;;7.80;99.90;;;;;;5019030;28;20029;-83
2021/04/19 11:34:59;;;;;;;27.60;17.15;;;7.80;99.90;;;;;;5018899;28;20112;-83
2021/04/19 11:37:33;;;;;;;29.80;18.20;;;7.90;99.90;;;;;;5018810;28;20385;-83
2021/04/19 11:40:00;;;;;;;33.05;19.73;;;7.80;99.90;;;;;;5036645;28;20056;-82
2021/04/19 11:42:32;;;;;;;28.90;19.27;;;7.70;99.90;;;;;;5036461;28;20073;-82
2021/04/19 11:44:59;;;;;;;29.65;18.60;;;7.50;99.90;;;;;;5036577;28;20022;-83
2021/04/19 11:47:24;;;;;;;29.52;17.70;;;7.60;99.90;;;;;;5018746;28;20017;-83
2021/04/19 11:49:52;;;;;;;34.47;20.23;;;7.60;99.90;;;;;;5018693;28;20033;-83
2021/04/19 11:52:19;;;;;;;28.33;17.48;;;7.70;99.90;;;;;;5036426;28;20018;-82
2021/04/19 11:54:45;;;;;;;33.35;19.13;;;7.70;99.90;;;;;;5018578;28;20026;-82
2021/04/19 11:57:11;;;;;;;33.03;20.73;;;7.70;99.90;;;;;;5018450;28;20041;-82
2021/04/19 11:59:37;;;;;;;30.55;21.92;;;7.60;99.90;;;;;;5020155;28;20022;-82
2021/04/19 12:02:07;;;;;;;40.80;24.77;;;7.50;99.90;;;;;;5018449;28;20104;-82
2021/04/19 12:04:32;;;;;;;41.47;25.20;;;7.50;99.90;;;;;;5019264;28;20113;-83
2021/04/19 12:06:58;;;;;;;37.42;22.65;;;7.50;99.90;;;;;;5018359;28;20455;-83
2021/04/19 12:09:25;;;;;;;42.33;24.42;;;7.50;99.90;;;;;;5018353;28;20508;-82
2021/04/19 12:11:51;;;;;;;46.65;25.65;;;7.40;99.90;;;;;;5036065;28;20099;-82
2021/04/19 12:14:17;;;;;;;25.73;17.90;;;7.40;99.90;;;;;;5018256;28;20021;-82
2021/04/19 12:16:43;;;;;;;32.30;18.83;;;7.50;99.90;;;;;;5035871;28;20451;-83
2021/04/19 12:19:09;;;;;;;35.25;21.65;;;7.50;99.90;;;;;;5036151;28;20021;-81
2021/04/19 12:21:36;;;;;;;26.85;17.30;;;7.60;99.90;;;;;;5018070;28;20022;-82
2021/04/19 12:24:03;;;;;;;17.20;11.95;;;7.60;99.90;;;;;;5016973;28;20025;-82
2021/04/19 12:26:29;;;;;;;35.10;20.67;;;7.60;99.90;;;;;;5035656;28;20092;-82
2021/04/19 12:28:55;;;;;;;32.25;21.95;;;7.70;99.90;;;;;;5017964;28;20021;-82
2021/04/19 12:31:21;;;;;;;30.25;20.83;;;7.70;99.90;;;;;;5035702;28;20026;-82
2021/04/19 12:33:48;;;;;;;31.80;20.33;;;7.80;99.90;;;;;;5017885;28;20041;-82
2021/04/19 12:36:14;;;;;;;28.05;17.23;;;7.90;99.90;;;;;;5017657;28;20021;-83
2021/04/19 12:38:40;;;;;;;34.75;20.27;;;7.90;99.90;;;;;;5017717;28;20032;-82
2021/04/19 12:41:06;;;;;;;30.38;17.92;;;7.90;99.90;;;;;;5018036;28;20017;-83
2021/04/19 12:43:32;;;;;;;24.90;15.95;;;8.00;99.90;;;;;;5017538;28;20045;-83
2021/04/19 12:45:58;;;;;;;30.77;17.77;;;8.00;99.90;;;;;;5035408;28;20469;-83
2021/04/19 12:48:23;;;;;;;35.30;20.75;;;7.90;99.90;;;;;;5017532;28;20473;-82
2021/04/19 12:50:49;;;;;;;38.13;20.77;;;8.00;99.90;;;;;;5035580;28;20029;-83
2021/04/19 12:53:15;;;;;;;36.97;20.65;;;7.90;99.90;;;;;;5017480;28;20032;-83
2021/04/19 12:55:43;;;;;;;41.70;23.60;;;7.90;99.90;;;;;;5017347;28;20037;-82